createdAt,value
2018-09-26T00:02:35.390Z,102234.63
2018-09-26T00:05:02.394Z,102221.37
2018-09-26T00:07:29.309Z,102212.72
2018-09-26T00:09:56.159Z,102222.05
2018-09-26T00:12:22.994Z,102216.84
2018-09-26T00:14:49.870Z,102217.71
2018-09-26T00:17:16.779Z,102226.34
2018-09-26T00:19:43.699Z,102224.68
2018-09-26T00:22:10.635Z,102234.07
2018-09-26T00:24:37.486Z,102225.68
2018-09-26T00:27:04.330Z,102224.83
2018-09-26T00:29:31.255Z,102212.39
2018-09-26T00:31:58.314Z,102200.43
2018-09-26T00:34:25.222Z,102187.27
2018-09-26T00:36:52.085Z,102191.87
2018-09-26T00:39:18.922Z,102186.89
2018-09-26T00:41:46.873Z,102174.97
2018-09-26T00:44:13.775Z,102169.27
2018-09-26T00:46:40.608Z,102161.32
2018-09-26T00:49:07.491Z,102150.98
2018-09-26T00:51:34.427Z,102149.73
2018-09-26T00:54:01.294Z,102151.55
2018-09-26T00:56:28.263Z,102145.62
2018-09-26T00:58:55.198Z,102142.73
2018-09-26T01:01:22.061Z,102137.94
2018-09-26T01:03:48.910Z,102136.03
2018-09-26T01:06:15.767Z,102135.28
2018-09-26T01:08:42.615Z,102131.93
2018-09-26T01:11:09.574Z,102127.83
2018-09-26T01:13:36.594Z,102130.11
2018-09-26T01:16:03.522Z,102123.07
2018-09-26T01:18:30.480Z,102127.90
2018-09-26T01:20:57.398Z,102132.41
2018-09-26T01:23:24.285Z,102130.06
2018-09-26T01:25:51.230Z,102123.95
2018-09-26T01:28:18.228Z,102125.50
2018-09-26T01:30:45.163Z,102125.66
2018-09-26T01:33:12.101Z,102119.05
2018-09-26T01:35:38.939Z,102115.16
2018-09-26T01:38:05.849Z,102121.05
2018-09-26T01:40:32.758Z,102119.23
2018-09-26T01:42:59.630Z,102113.61
2018-09-26T01:45:26.587Z,102105.84
2018-09-26T01:47:53.426Z,102113.91
2018-09-26T01:50:20.263Z,102106.63
2018-09-26T01:52:47.094Z,102101.37
2018-09-26T01:55:13.986Z,102096.05
2018-09-26T01:57:40.918Z,102086.70
2018-09-26T02:00:07.794Z,102086.19
2018-09-26T02:02:34.770Z,102090.16
2018-09-26T02:05:01.740Z,102092.56
2018-09-26T02:07:29.614Z,102086.95
2018-09-26T02:09:56.618Z,102084.90
2018-09-26T02:12:23.583Z,102094.39
2018-09-26T02:14:50.495Z,102094.84
2018-09-26T02:17:17.414Z,102091.33
2018-09-26T02:19:44.283Z,102099.13
2018-09-26T02:22:11.190Z,102084.28
2018-09-26T02:24:38.113Z,102081.48
2018-09-26T02:27:05.064Z,102071.52
2018-09-26T02:29:32.033Z,102074.81
2018-09-26T02:31:58.989Z,102073.44
2018-09-26T02:34:25.854Z,102084.97
2018-09-26T02:36:52.702Z,102081.17
2018-09-26T02:39:19.631Z,102081.39
2018-09-26T02:41:46.512Z,102090.80
2018-09-26T02:44:13.413Z,102093.38
2018-09-26T02:46:40.286Z,102104.28
2018-09-26T02:49:07.207Z,102102.43
2018-09-26T02:51:36.601Z,102103.86
2018-09-26T02:54:03.653Z,102097.66
2018-09-26T02:56:30.498Z,102094.77
2018-09-26T02:58:57.478Z,102099.12
2018-09-26T03:01:24.618Z,102099.63
2018-09-26T03:03:51.557Z,102096.37
2018-09-26T03:06:18.441Z,102100.83
2018-09-26T03:08:45.443Z,102095.45
2018-09-26T03:11:12.338Z,102098.49
2018-09-26T03:13:39.253Z,102093.90
2018-09-26T03:16:06.206Z,102084.10
2018-09-26T03:18:33.114Z,102081.59
2018-09-26T03:20:59.994Z,102082.92
2018-09-26T03:23:26.910Z,102072.88
2018-09-26T03:25:54.802Z,102069.15
2018-09-26T03:28:21.655Z,102070.51
2018-09-26T03:30:49.634Z,102066.50
2018-09-26T03:33:18.554Z,102061.20
2018-09-26T03:35:45.519Z,102053.59
2018-09-26T03:38:12.442Z,102049.06
2018-09-26T03:40:39.344Z,102038.61
2018-09-26T03:43:06.558Z,102047.39
2018-09-26T03:45:33.427Z,102057.92
2018-09-26T03:48:00.279Z,102056.75
2018-09-26T03:50:28.155Z,102051.05
2018-09-26T03:52:54.990Z,102036.20
2018-09-26T03:55:22.155Z,102028.98
2018-09-26T03:57:49.033Z,102035.16
2018-09-26T04:00:16.009Z,102032.51
2018-09-26T04:02:44.074Z,102030.52
2018-09-26T04:05:11.100Z,102032.95
2018-09-26T04:07:38.078Z,102033.48
2018-09-26T04:10:05.229Z,102036.70
2018-09-26T04:12:32.220Z,102045.38
2018-09-26T04:14:59.054Z,102042.66
2018-09-26T04:17:25.958Z,102036.97
2018-09-26T04:19:52.874Z,102037.15
2018-09-26T04:22:19.727Z,102044.60
2018-09-26T04:24:46.683Z,102049.31
2018-09-26T04:27:13.641Z,102049.28
2018-09-26T04:29:40.525Z,102055.27
2018-09-26T04:32:07.451Z,102057.54
2018-09-26T04:34:34.338Z,102042.20
2018-09-26T04:37:01.270Z,102050.01
2018-09-26T04:39:28.127Z,102047.03
2018-09-26T04:41:56.009Z,102046.52
2018-09-26T04:44:22.957Z,102052.40
2018-09-26T04:46:49.825Z,102052.57
2018-09-26T04:49:16.775Z,102044.46
2018-09-26T04:51:43.734Z,102041.88
2018-09-26T04:54:10.690Z,102039.69
2018-09-26T04:56:37.710Z,102044.66
2018-09-26T04:59:04.598Z,102040.45
2018-09-26T05:01:34.762Z,102035.36
2018-09-26T05:04:01.821Z,102035.29
2018-09-26T05:06:28.746Z,102035.05
2018-09-26T05:08:55.720Z,102044.59
2018-09-26T05:11:22.586Z,102040.70
2018-09-26T05:13:49.509Z,102043.94
2018-09-26T05:16:16.385Z,102039.66
2018-09-26T05:18:43.329Z,102045.75
2018-09-26T05:21:10.168Z,102057.15
2018-09-26T05:23:37.038Z,102058.27
2018-09-26T05:26:03.885Z,102060.84
2018-09-26T05:28:30.754Z,102055.47
2018-09-26T05:30:57.599Z,102072.55
2018-09-26T05:33:24.482Z,102079.41
2018-09-26T05:35:51.433Z,102082.23
2018-09-26T05:38:18.394Z,102075.54
2018-09-26T05:40:45.246Z,102073.72
2018-09-26T05:43:12.591Z,102082.72
2018-09-26T05:45:39.450Z,102077.72
2018-09-26T05:48:06.318Z,102083.27
2018-09-26T05:50:33.282Z,102086.74
2018-09-26T05:53:00.223Z,102084.31
2018-09-26T05:55:27.222Z,102087.20
2018-09-26T05:57:54.146Z,102090.48
2018-09-26T06:00:21.082Z,102088.67
2018-09-26T06:02:47.962Z,102088.84
2018-09-26T06:05:14.818Z,102087.56
2018-09-26T06:07:41.750Z,102076.91
2018-09-26T06:10:08.637Z,102083.28
2018-09-26T06:12:35.558Z,102083.07
2018-09-26T06:15:02.407Z,102072.23
2018-09-26T06:17:29.302Z,102073.73
2018-09-26T06:19:56.546Z,102075.25
2018-09-26T06:22:23.494Z,102074.38
2018-09-26T06:24:50.450Z,102069.11
2018-09-26T06:27:17.315Z,102069.41
2018-09-26T06:29:44.185Z,102068.06
2018-09-26T06:32:11.127Z,102083.32
2018-09-26T06:34:37.986Z,102091.45
2018-09-26T06:37:05.098Z,102094.49
2018-09-26T06:39:31.942Z,102090.03
2018-09-26T06:41:58.854Z,102094.98
2018-09-26T06:44:25.822Z,102108.61
2018-09-26T06:46:52.776Z,102116.75
2018-09-26T06:49:19.750Z,102129.28
2018-09-26T06:51:46.601Z,102137.05
2018-09-26T06:54:13.538Z,102132.65
2018-09-26T06:56:40.393Z,102128.06
2018-09-26T06:59:07.558Z,102112.66
2018-09-26T07:01:34.506Z,102115.41
2018-09-26T07:04:01.371Z,102104.30
2018-09-26T07:06:28.207Z,102105.76
2018-09-26T07:08:55.135Z,102121.94
2018-09-26T07:11:22.036Z,102125.02
2018-09-26T07:13:48.882Z,102126.97
2018-09-26T07:16:15.745Z,102129.08
2018-09-26T07:18:42.597Z,102135.66
2018-09-26T07:21:09.478Z,102136.58
2018-09-26T07:23:36.521Z,102131.35
2018-09-26T07:26:03.363Z,102133.45
2018-09-26T07:28:30.319Z,102131.91
2018-09-26T07:30:57.210Z,102136.13
2018-09-26T07:33:24.126Z,102141.23
2018-09-26T07:35:50.991Z,102141.69
2018-09-26T07:38:18.911Z,102152.54
2018-09-26T07:40:45.734Z,102154.22
2018-09-26T07:43:12.588Z,102146.17
2018-09-26T07:45:39.451Z,102153.52
2018-09-26T07:48:06.322Z,102151.00
2018-09-26T07:50:33.162Z,102159.72
2018-09-26T07:53:00.151Z,102154.80
2018-09-26T07:55:26.950Z,102159.16
2018-09-26T07:57:53.806Z,102155.66
2018-09-26T08:00:20.648Z,102153.31
2018-09-26T08:02:47.554Z,102148.14
2018-09-26T08:05:14.482Z,102141.04
2018-09-26T08:07:41.326Z,102144.90
2018-09-26T08:10:08.210Z,102142.61
2018-09-26T08:12:35.151Z,102146.87
2018-09-26T08:15:02.003Z,102154.09
2018-09-26T08:17:28.860Z,102159.63
2018-09-26T08:19:55.718Z,102147.75
2018-09-26T08:22:22.609Z,102141.55
2018-09-26T08:24:49.526Z,102147.34
2018-09-26T08:27:16.382Z,102143.22
2018-09-26T08:29:43.262Z,102134.40
2018-09-26T08:32:10.115Z,102142.41
2018-09-26T08:34:37.071Z,102133.86
2018-09-26T08:37:04.023Z,102127.92
2018-09-26T08:39:30.977Z,102132.09
2018-09-26T08:41:57.914Z,102131.21
2018-09-26T08:44:24.769Z,102128.83
2018-09-26T08:46:51.638Z,102118.91
2018-09-26T08:49:18.502Z,102120.19
2018-09-26T08:51:45.442Z,102123.74
2018-09-26T08:54:12.298Z,102125.56
2018-09-26T08:56:39.206Z,102126.14
2018-09-26T08:59:06.258Z,102123.66
2018-09-26T09:01:38.925Z,102133.03
2018-09-26T09:04:05.758Z,102134.59
2018-09-26T09:06:32.633Z,102133.02
2018-09-26T09:08:59.574Z,102141.86
2018-09-26T09:11:26.425Z,102147.66
2018-09-26T09:13:53.276Z,102144.20
2018-09-26T09:16:20.138Z,102142.80
2018-09-26T09:18:46.990Z,102141.72
2018-09-26T09:21:13.868Z,102141.91
2018-09-26T09:23:40.802Z,102141.20
2018-09-26T09:26:07.681Z,102135.19
2018-09-26T09:28:34.490Z,102128.18
2018-09-26T09:31:01.370Z,102133.98
2018-09-26T09:33:28.271Z,102127.70
2018-09-26T09:35:55.181Z,102131.27
2018-09-26T09:38:22.097Z,102118.25
2018-09-26T09:40:48.923Z,102104.20
2018-09-26T09:43:15.757Z,102103.95
2018-09-26T09:45:42.622Z,102110.41
2018-09-26T09:48:09.446Z,102105.77
2018-09-26T09:50:36.330Z,102100.76
2018-09-26T09:53:03.271Z,102100.13
2018-09-26T09:55:30.159Z,102111.69
2018-09-26T09:57:57.093Z,102107.30
2018-09-26T10:00:29.594Z,102113.73
2018-09-26T10:02:56.665Z,102113.62
2018-09-26T10:05:23.449Z,102109.94
2018-09-26T10:07:50.411Z,102106.83
2018-09-26T10:10:17.314Z,102118.62
2018-09-26T10:12:44.277Z,102112.31
2018-09-26T10:15:15.310Z,102109.91
2018-09-26T10:17:42.182Z,102114.59
2018-09-26T10:20:09.097Z,102111.63
2018-09-26T10:22:35.886Z,102110.19
2018-09-26T10:25:02.863Z,102112.06
2018-09-26T10:27:29.778Z,102108.98
2018-09-26T10:29:56.651Z,102110.97
2018-09-26T10:32:23.669Z,102104.92
2018-09-26T10:34:50.412Z,102105.65
2018-09-26T10:37:17.307Z,102098.18
2018-09-26T10:39:44.223Z,102100.84
2018-09-26T10:42:11.210Z,102086.73
2018-09-26T10:44:38.049Z,102092.91
2018-09-26T10:47:04.941Z,102090.80
2018-09-26T10:49:32.112Z,102092.87
2018-09-26T10:51:58.959Z,102095.45
2018-09-26T10:54:25.789Z,102085.16
2018-09-26T10:56:52.705Z,102089.75
2018-09-26T10:59:19.546Z,102090.66
2018-09-26T11:01:46.474Z,102080.78
2018-09-26T11:04:13.403Z,102082.73
2018-09-26T11:06:40.174Z,102077.02
2018-09-26T11:09:07.866Z,102072.19
2018-09-26T11:11:34.721Z,102069.35
2018-09-26T11:14:03.179Z,102059.68
2018-09-26T11:16:30.072Z,102060.11
2018-09-26T11:18:57.019Z,102058.62
2018-09-26T11:21:27.934Z,102060.94
2018-09-26T11:23:54.897Z,102056.91
2018-09-26T11:26:21.829Z,102051.11
2018-09-26T11:28:48.655Z,102048.19
2018-09-26T11:31:15.586Z,102047.55
2018-09-26T11:33:42.515Z,102044.25
2018-09-26T11:36:09.415Z,102047.95
2018-09-26T11:38:36.270Z,102036.56
2018-09-26T11:41:03.118Z,102025.99
2018-09-26T11:43:29.982Z,102014.23
2018-09-26T11:45:56.833Z,102017.16
2018-09-26T11:48:23.762Z,102016.78
2018-09-26T11:50:50.644Z,102020.36
2018-09-26T11:53:17.614Z,102007.23
2018-09-26T11:55:44.494Z,102013.14
2018-09-26T11:58:11.393Z,102013.78
2018-09-26T12:00:38.271Z,102013.92
2018-09-26T12:03:05.242Z,102013.85
2018-09-26T12:05:32.199Z,102016.27
2018-09-26T12:07:59.146Z,102002.84
2018-09-26T12:10:26.137Z,102009.45
2018-09-26T12:12:52.990Z,102010.81
2018-09-26T12:15:19.922Z,102006.91
2018-09-26T12:17:46.795Z,102001.55
2018-09-26T12:20:13.637Z,101996.48
2018-09-26T12:22:40.636Z,101989.73
2018-09-26T12:25:07.582Z,101995.63
2018-09-26T12:27:34.489Z,101998.12
2018-09-26T12:30:01.355Z,101993.70
2018-09-26T12:32:28.226Z,101984.44
2018-09-26T12:34:55.247Z,101984.64
2018-09-26T12:37:22.076Z,101968.34
2018-09-26T12:39:48.970Z,101972.19
2018-09-26T12:42:15.916Z,101960.73
2018-09-26T12:44:42.790Z,101961.27
2018-09-26T12:47:09.704Z,101965.80
2018-09-26T12:49:36.566Z,101962.30
2018-09-26T12:52:03.405Z,101957.86
2018-09-26T12:54:30.306Z,101946.33
2018-09-26T12:56:57.158Z,101952.08
2018-09-26T12:59:24.023Z,101957.64
2018-09-26T13:01:50.867Z,101947.51
2018-09-26T13:04:17.737Z,101946.17
2018-09-26T13:06:44.578Z,101939.86
2018-09-26T13:09:11.455Z,101932.97
2018-09-26T13:11:38.300Z,101936.94
2018-09-26T13:14:05.306Z,101929.52
2018-09-26T13:16:32.106Z,101927.66
2018-09-26T13:18:58.959Z,101933.86
2018-09-26T13:21:25.826Z,101933.98
2018-09-26T13:23:52.663Z,101920.55
2018-09-26T13:26:19.554Z,101919.88
2018-09-26T13:28:46.375Z,101914.33
2018-09-26T13:31:13.226Z,101913.25
2018-09-26T13:33:40.067Z,101913.91
2018-09-26T13:36:06.992Z,101910.53
2018-09-26T13:38:33.790Z,101906.76
2018-09-26T13:41:00.678Z,101901.48
2018-09-26T13:43:27.619Z,101896.70
2018-09-26T13:45:54.522Z,101895.52
2018-09-26T13:48:21.661Z,101897.44
2018-09-26T13:50:48.485Z,101893.90
2018-09-26T13:53:15.358Z,101906.02
2018-09-26T13:55:42.234Z,101894.71
2018-09-26T13:58:09.174Z,101890.92
2018-09-26T14:00:35.998Z,101889.93
2018-09-26T14:03:02.915Z,101896.69
2018-09-26T14:05:29.833Z,101880.13
2018-09-26T14:07:56.786Z,101874.50
2018-09-26T14:10:23.638Z,101874.09
2018-09-26T14:12:50.575Z,101871.95
2018-09-26T14:15:17.470Z,101866.55
2018-09-26T14:17:44.406Z,101869.80
2018-09-26T14:20:11.354Z,101859.50
2018-09-26T14:22:39.251Z,101854.34
2018-09-26T14:25:06.133Z,101861.05
2018-09-26T14:27:33.095Z,101862.17
2018-09-26T14:30:00.056Z,101862.01
2018-09-26T14:32:27.077Z,101852.95
2018-09-26T14:34:53.846Z,101850.59
2018-09-26T14:37:20.690Z,101854.16
2018-09-26T14:39:47.689Z,101838.17
2018-09-26T14:42:14.527Z,101839.70
2018-09-26T14:44:41.370Z,101843.89
2018-09-26T14:47:08.382Z,101839.73
2018-09-26T14:49:35.254Z,101853.75
2018-09-26T14:52:04.153Z,101849.98
2018-09-26T14:54:31.020Z,101849.11
2018-09-26T14:56:57.862Z,101852.39
2018-09-26T14:59:24.779Z,101850.64
2018-09-26T15:01:53.637Z,101852.58
2018-09-26T15:04:20.593Z,101842.88
2018-09-26T15:06:47.371Z,101833.16
2018-09-26T15:09:14.216Z,101847.96
2018-09-26T15:11:41.158Z,101850.54
2018-09-26T15:14:08.175Z,101840.20
2018-09-26T15:16:34.983Z,101841.01
2018-09-26T15:19:01.955Z,101839.87
2018-09-26T15:21:28.807Z,101831.91
2018-09-26T15:23:56.034Z,101825.28
2018-09-26T15:26:25.099Z,101835.70
2018-09-26T15:28:51.806Z,101836.41
2018-09-26T15:31:18.639Z,101834.24
2018-09-26T15:33:45.567Z,101829.84
2018-09-26T15:36:13.369Z,101829.16
2018-09-26T15:38:40.803Z,101825.20
2018-09-26T15:41:07.722Z,101822.53
2018-09-26T15:43:35.539Z,101822.03
2018-09-26T15:46:02.462Z,101824.84
2018-09-26T15:48:29.468Z,101824.18
2018-09-26T15:50:57.286Z,101826.17
2018-09-26T15:53:24.258Z,101832.70
2018-09-26T15:55:51.191Z,101824.48
2018-09-26T15:58:18.117Z,101827.27
2018-09-26T16:00:45.272Z,101832.70
2018-09-26T16:03:12.199Z,101819.31
2018-09-26T16:05:40.992Z,101833.64
2018-09-26T16:08:08.122Z,101831.00
2018-09-26T16:10:35.030Z,101825.70
2018-09-26T16:13:04.718Z,101822.28
2018-09-26T16:15:31.569Z,101821.11
2018-09-26T16:17:58.426Z,101820.58
2018-09-26T16:20:28.551Z,101817.56
2018-09-26T16:22:55.422Z,101815.63
2018-09-26T16:25:22.386Z,101824.36
2018-09-26T16:27:49.234Z,101824.69
2018-09-26T16:30:16.233Z,101828.11
2018-09-26T16:32:43.030Z,101830.48
2018-09-26T16:35:09.922Z,101831.80
2018-09-26T16:37:37.054Z,101825.14
2018-09-26T16:40:04.037Z,101831.22
2018-09-26T16:42:32.831Z,101839.22
2018-09-26T16:47:34.018Z,101851.19
2018-09-26T16:50:00.966Z,101849.45
2018-09-26T16:52:27.987Z,101855.27
2018-09-26T16:54:54.877Z,101853.70
2018-09-26T16:57:21.846Z,101853.86
2018-09-26T16:59:48.817Z,101851.88
2018-09-26T17:02:15.766Z,101855.30
2018-09-26T17:04:42.647Z,101856.52
2018-09-26T17:07:09.603Z,101862.07
2018-09-26T17:09:36.506Z,101857.29
2018-09-26T17:12:04.443Z,101862.86
2018-09-26T17:14:31.369Z,101861.94
2018-09-26T17:16:58.202Z,101867.73
2018-09-26T17:19:25.121Z,101870.04
2018-09-26T17:21:51.903Z,101867.06
2018-09-26T17:24:18.874Z,101876.30
2018-09-26T17:26:45.630Z,101874.11
2018-09-26T17:29:12.580Z,101884.05
2018-09-26T17:31:41.518Z,101882.26
2018-09-26T17:34:08.476Z,101884.83
2018-09-26T17:36:35.446Z,101883.70
2018-09-26T17:39:02.315Z,101881.54
2018-09-26T17:41:29.218Z,101883.66
2018-09-26T17:43:56.162Z,101879.95
2018-09-26T17:46:23.135Z,101877.48
2018-09-26T17:48:50.002Z,101886.02
2018-09-26T17:51:16.830Z,101886.34
2018-09-26T17:53:43.760Z,101889.45
2018-09-26T17:56:10.650Z,101886.00
2018-09-26T17:58:37.599Z,101884.05
2018-09-26T18:01:04.458Z,101884.33
2018-09-26T18:03:31.327Z,101883.98
2018-09-26T18:05:58.188Z,101887.47
2018-09-26T18:08:25.221Z,101888.17
2018-09-26T18:10:52.245Z,101885.20
2018-09-26T18:13:19.253Z,101880.84
2018-09-26T18:15:46.142Z,101890.20
2018-09-26T18:18:13.087Z,101892.17
2018-09-26T18:20:40.044Z,101892.22
2018-09-26T18:23:07.189Z,101891.84
2018-09-26T18:25:34.101Z,101884.98
2018-09-26T18:28:01.102Z,101880.47
2018-09-26T18:30:27.949Z,101887.94
2018-09-26T18:32:54.848Z,101882.36
2018-09-26T18:35:21.839Z,101880.59
2018-09-26T18:37:50.836Z,101887.55
2018-09-26T18:40:17.915Z,101888.55
2018-09-26T18:42:45.806Z,101895.16
2018-09-26T18:45:13.124Z,101888.41
2018-09-26T18:47:40.083Z,101892.53
2018-09-26T18:50:08.076Z,101892.41
2018-09-26T18:52:35.117Z,101896.02
2018-09-26T18:55:02.138Z,101900.59
2018-09-26T18:57:29.349Z,101907.31
2018-09-26T18:59:56.396Z,101899.22
2018-09-26T19:02:23.316Z,101902.81
2018-09-26T19:04:50.360Z,101901.59
2018-09-26T19:07:17.139Z,101906.41
2018-09-26T19:09:44.070Z,101910.20
2018-09-26T19:12:11.041Z,101916.78
2018-09-26T19:14:37.902Z,101912.29
2018-09-26T19:17:05.171Z,101912.98
2018-09-26T19:19:32.110Z,101914.94
2018-09-26T19:21:58.966Z,101910.78
2018-09-26T19:24:25.974Z,101913.27
2018-09-26T19:26:52.957Z,101922.15
2018-09-26T19:29:19.861Z,101908.98
2018-09-26T19:31:46.782Z,101913.45
2018-09-26T19:34:19.606Z,101912.45
2018-09-26T19:36:46.536Z,101910.55
2018-09-26T19:39:13.429Z,101913.16
2018-09-26T19:41:40.314Z,101914.76
2018-09-26T19:44:09.167Z,101921.32
2018-09-26T19:46:36.110Z,101917.14
2018-09-26T19:49:03.243Z,101916.98
2018-09-26T19:51:31.202Z,101919.14
2018-09-26T19:53:59.122Z,101918.98
2018-09-26T19:56:26.235Z,101919.17
2018-09-26T19:58:52.842Z,101911.48
2018-09-26T20:01:19.701Z,101917.02
2018-09-26T20:03:54.550Z,101910.63
2018-09-26T20:06:21.411Z,101916.19
2018-09-26T20:08:48.346Z,101917.52
2018-09-26T20:11:16.229Z,101916.78
2018-09-26T20:13:43.083Z,101917.84
2018-09-26T20:16:09.937Z,101913.62
2018-09-26T20:18:37.854Z,101910.05
2018-09-26T20:21:04.779Z,101916.22
2018-09-26T20:23:31.742Z,101916.19
2018-09-26T20:26:00.550Z,101913.18
2018-09-26T20:28:27.486Z,101914.09
2018-09-26T20:30:54.405Z,101910.73
2018-09-26T20:33:21.171Z,101917.60
2018-09-26T20:35:48.058Z,101918.33
2018-09-26T20:38:14.918Z,101917.11
2018-09-26T20:40:41.770Z,101921.07
2018-09-26T20:43:08.614Z,101913.18
2018-09-26T20:45:35.535Z,101911.30
2018-09-26T20:48:02.362Z,101909.88
2018-09-26T20:50:29.302Z,101910.07
2018-09-26T20:52:56.355Z,101920.23
2018-09-26T20:55:24.222Z,101922.81
2018-09-26T20:57:52.175Z,101918.45
2018-09-26T21:00:19.075Z,101916.12
2018-09-26T21:02:46.050Z,101921.31
2018-09-26T21:05:12.873Z,101917.20
2018-09-26T21:07:39.726Z,101919.55
2018-09-26T21:10:06.801Z,101917.58
2018-09-26T21:12:33.762Z,101917.06
2018-09-26T21:15:02.646Z,101921.61
2018-09-26T21:17:29.501Z,101926.06
2018-09-26T21:19:56.362Z,101924.41
2018-09-26T21:22:23.249Z,101922.82
2018-09-26T21:24:50.159Z,101914.95
2018-09-26T21:27:17.075Z,101915.13
2018-09-26T21:29:44.058Z,101910.51
2018-09-26T21:32:12.008Z,101916.16
2018-09-26T21:34:38.946Z,101909.83
2018-09-26T21:37:05.914Z,101918.47
2018-09-26T21:39:32.844Z,101912.53
2018-09-26T21:41:59.694Z,101908.66
2018-09-26T21:44:26.542Z,101909.66
2018-09-26T21:46:53.390Z,101907.50
2018-09-26T21:49:20.258Z,101908.31
2018-09-26T21:51:47.125Z,101904.92
2018-09-26T21:54:14.011Z,101899.55
2018-09-26T21:56:40.841Z,101904.94
2018-09-26T21:59:07.880Z,101902.44
2018-09-26T22:01:34.742Z,101900.58
2018-09-26T22:04:01.703Z,101905.88
2018-09-26T22:06:28.650Z,101899.88
2018-09-26T22:08:55.506Z,101893.61
2018-09-26T22:11:22.390Z,101899.17
2018-09-26T22:13:49.306Z,101896.11
2018-09-26T22:16:16.194Z,101894.26
2018-09-26T22:18:43.126Z,101897.15
2018-09-26T22:21:10.006Z,101895.41
2018-09-26T22:23:36.967Z,101896.25
2018-09-26T22:26:03.889Z,101895.78
2018-09-26T22:28:30.746Z,101901.52
2018-09-26T22:30:57.630Z,101891.14
2018-09-26T22:33:24.477Z,101899.94
2018-09-26T22:35:51.441Z,101896.41
2018-09-26T22:38:18.449Z,101897.17
2018-09-26T22:40:45.210Z,101897.08
2018-09-26T22:43:12.098Z,101902.50
2018-09-26T22:45:39.128Z,101900.65
2018-09-26T22:48:06.030Z,101898.77
2018-09-26T22:50:32.982Z,101894.72
2018-09-26T22:52:59.810Z,101897.06
2018-09-26T22:55:26.666Z,101892.31
2018-09-26T22:57:53.489Z,101895.53
2018-09-26T23:00:20.378Z,101898.42
2018-09-26T23:02:47.267Z,101899.00
2018-09-26T23:05:14.090Z,101898.49
2018-09-26T23:07:40.963Z,101896.25
2018-09-26T23:10:07.902Z,101899.86
2018-09-26T23:12:34.778Z,101903.23
2018-09-26T23:15:01.689Z,101901.27
2018-09-26T23:17:28.543Z,101904.01
2018-09-26T23:19:55.434Z,101899.94
2018-09-26T23:22:22.430Z,101892.83
2018-09-26T23:24:51.293Z,101894.09
2018-09-26T23:27:18.238Z,101897.00
2018-09-26T23:29:45.134Z,101899.23
2018-09-26T23:32:12.061Z,101898.94
2018-09-26T23:34:38.903Z,101897.19
2018-09-26T23:37:05.776Z,101893.22
2018-09-26T23:39:32.633Z,101891.63
2018-09-26T23:41:59.482Z,101886.95
2018-09-26T23:44:26.430Z,101888.08
2018-09-26T23:46:53.282Z,101875.98
2018-09-26T23:49:20.144Z,101878.51
2018-09-26T23:51:47.002Z,101878.03
2018-09-26T23:54:14.162Z,101876.18
2018-09-26T23:56:42.047Z,101877.59
2018-09-26T23:59:08.930Z,101875.52
